sensor_id;sensor_type;location;lat;lon;timestamp;P1;durP1;ratioP1;P2;durP2;ratioP2
5900;SDS011;2976;49.764;9.796;2024-01-06T00:00:21;2.40;;;1.57;;
5900;SDS011;2976;49.764;9.796;2024-01-06T00:02:48;2.60;;;1.30;;
5900;SDS011;2976;49.764;9.796;2024-01-06T00:05:13;7.20;;;1.07;;
5900;SDS011;2976;49.764;9.796;2024-01-06T00:07:39;5.60;;;1.33;;
5900;SDS011;2976;49.764;9.796;2024-01-06T00:10:05;3.90;;;1.40;;
5900;SDS011;2976;49.764;9.796;2024-01-06T00:12:31;4.73;;;1.20;;
5900;SDS011;2976;49.764;9.796;2024-01-06T00:14:57;4.27;;;1.40;;
5900;SDS011;2976;49.764;9.796;2024-01-06T00:17:22;1.57;;;1.10;;
5900;SDS011;2976;49.764;9.796;2024-01-06T00:19:48;1.10;;;1.00;;
5900;SDS011;2976;49.764;9.796;2024-01-06T00:22:16;8.20;;;1.53;;
5900;SDS011;2976;49.764;9.796;2024-01-06T00:24:43;2.10;;;1.10;;
5900;SDS011;2976;49.764;9.796;2024-01-06T00:27:08;1.47;;;0.93;;
5900;SDS011;2976;49.764;9.796;2024-01-06T00:29:34;0.80;;;0.80;;
5900;SDS011;2976;49.764;9.796;2024-01-06T00:31:59;4.03;;;0.93;;
5900;SDS011;2976;49.764;9.796;2024-01-06T00:34:25;3.70;;;1.20;;
5900;SDS011;2976;49.764;9.796;2024-01-06T00:36:50;1.20;;;0.80;;
5900;SDS011;2976;49.764;9.796;2024-01-06T00:39:16;5.03;;;1.10;;
5900;SDS011;2976;49.764;9.796;2024-01-06T00:41:41;4.53;;;0.90;;
5900;SDS011;2976;49.764;9.796;2024-01-06T00:44:07;0.87;;;0.87;;
5900;SDS011;2976;49.764;9.796;2024-01-06T00:46:32;1.40;;;1.10;;
5900;SDS011;2976;49.764;9.796;2024-01-06T00:48:58;2.20;;;0.90;;
5900;SDS011;2976;49.764;9.796;2024-01-06T00:51:24;7.93;;;1.20;;
5900;SDS011;2976;49.764;9.796;2024-01-06T00:53:49;1.03;;;0.80;;
5900;SDS011;2976;49.764;9.796;2024-01-06T00:56:15;2.00;;;1.07;;
5900;SDS011;2976;49.764;9.796;2024-01-06T00:58:41;3.83;;;0.90;;
5900;SDS011;2976;49.764;9.796;2024-01-06T01:01:06;6.20;;;1.23;;
5900;SDS011;2976;49.764;9.796;2024-01-06T01:03:32;7.67;;;1.97;;
5900;SDS011;2976;49.764;9.796;2024-01-06T01:05:58;3.53;;;1.50;;
5900;SDS011;2976;49.764;9.796;2024-01-06T01:08:23;2.20;;;1.00;;
5900;SDS011;2976;49.764;9.796;2024-01-06T01:10:49;3.50;;;1.10;;
5900;SDS011;2976;49.764;9.796;2024-01-06T01:13:14;1.53;;;0.80;;
5900;SDS011;2976;49.764;9.796;2024-01-06T01:15:40;5.67;;;1.33;;
5900;SDS011;2976;49.764;9.796;2024-01-06T01:18:05;1.73;;;1.00;;
5900;SDS011;2976;49.764;9.796;2024-01-06T01:20:31;1.83;;;1.20;;
5900;SDS011;2976;49.764;9.796;2024-01-06T01:22:56;3.00;;;1.30;;
5900;SDS011;2976;49.764;9.796;2024-01-06T01:25:22;2.43;;;1.20;;
5900;SDS011;2976;49.764;9.796;2024-01-06T01:27:47;1.13;;;1.13;;
5900;SDS011;2976;49.764;9.796;2024-01-06T01:30:13;1.47;;;1.17;;
5900;SDS011;2976;49.764;9.796;2024-01-06T01:32:39;1.90;;;0.93;;
5900;SDS011;2976;49.764;9.796;2024-01-06T01:35:04;0.93;;;0.93;;
5900;SDS011;2976;49.764;9.796;2024-01-06T01:37:30;1.30;;;0.70;;
5900;SDS011;2976;49.764;9.796;2024-01-06T01:39:56;2.43;;;1.60;;
5900;SDS011;2976;49.764;9.796;2024-01-06T01:42:22;1.63;;;1.23;;
5900;SDS011;2976;49.764;9.796;2024-01-06T01:44:47;8.13;;;1.27;;
5900;SDS011;2976;49.764;9.796;2024-01-06T01:47:13;2.57;;;0.77;;
5900;SDS011;2976;49.764;9.796;2024-01-06T01:49:43;4.37;;;1.33;;
5900;SDS011;2976;49.764;9.796;2024-01-06T01:52:11;3.20;;;1.00;;
5900;SDS011;2976;49.764;9.796;2024-01-06T01:54:37;4.33;;;0.77;;
5900;SDS011;2976;49.764;9.796;2024-01-06T01:57:03;3.60;;;0.80;;
5900;SDS011;2976;49.764;9.796;2024-01-06T01:59:29;7.73;;;1.50;;
5900;SDS011;2976;49.764;9.796;2024-01-06T02:01:55;4.63;;;1.17;;
5900;SDS011;2976;49.764;9.796;2024-01-06T02:04:21;1.40;;;1.30;;
5900;SDS011;2976;49.764;9.796;2024-01-06T02:06:47;1.47;;;0.80;;
5900;SDS011;2976;49.764;9.796;2024-01-06T02:09:13;0.97;;;0.97;;
5900;SDS011;2976;49.764;9.796;2024-01-06T02:11:38;3.57;;;1.30;;
5900;SDS011;2976;49.764;9.796;2024-01-06T02:14:04;1.37;;;1.00;;
5900;SDS011;2976;49.764;9.796;2024-01-06T02:16:29;2.23;;;1.17;;
5900;SDS011;2976;49.764;9.796;2024-01-06T02:18:55;1.43;;;0.90;;
5900;SDS011;2976;49.764;9.796;2024-01-06T02:21:23;2.40;;;1.20;;
5900;SDS011;2976;49.764;9.796;2024-01-06T02:23:49;0.70;;;0.70;;
5900;SDS011;2976;49.764;9.796;2024-01-06T02:26:16;3.30;;;1.40;;
5900;SDS011;2976;49.764;9.796;2024-01-06T02:28:41;2.73;;;1.13;;
5900;SDS011;2976;49.764;9.796;2024-01-06T02:31:12;9.80;;;1.40;;
5900;SDS011;2976;49.764;9.796;2024-01-06T02:33:38;2.43;;;1.40;;
5900;SDS011;2976;49.764;9.796;2024-01-06T02:36:03;2.10;;;1.20;;
5900;SDS011;2976;49.764;9.796;2024-01-06T02:38:29;11.87;;;1.57;;
5900;SDS011;2976;49.764;9.796;2024-01-06T02:40:55;1.80;;;1.20;;
5900;SDS011;2976;49.764;9.796;2024-01-06T02:43:20;3.43;;;1.47;;
5900;SDS011;2976;49.764;9.796;2024-01-06T02:45:47;3.27;;;1.47;;
5900;SDS011;2976;49.764;9.796;2024-01-06T02:48:12;14.10;;;1.83;;
5900;SDS011;2976;49.764;9.796;2024-01-06T02:50:38;3.80;;;1.87;;
5900;SDS011;2976;49.764;9.796;2024-01-06T02:53:03;3.13;;;1.80;;
5900;SDS011;2976;49.764;9.796;2024-01-06T02:55:29;6.83;;;1.17;;
5900;SDS011;2976;49.764;9.796;2024-01-06T02:57:54;1.47;;;1.10;;
5900;SDS011;2976;49.764;9.796;2024-01-06T03:00:20;3.27;;;1.07;;
5900;SDS011;2976;49.764;9.796;2024-01-06T03:02:46;4.40;;;2.00;;
5900;SDS011;2976;49.764;9.796;2024-01-06T03:05:11;3.53;;;1.33;;
5900;SDS011;2976;49.764;9.796;2024-01-06T03:07:37;5.90;;;1.33;;
5900;SDS011;2976;49.764;9.796;2024-01-06T03:10:02;1.23;;;1.13;;
5900;SDS011;2976;49.764;9.796;2024-01-06T03:12:28;1.50;;;1.40;;
5900;SDS011;2976;49.764;9.796;2024-01-06T03:14:54;1.43;;;1.00;;
5900;SDS011;2976;49.764;9.796;2024-01-06T03:17:19;3.43;;;1.20;;
5900;SDS011;2976;49.764;9.796;2024-01-06T03:19:45;0.90;;;0.90;;
5900;SDS011;2976;49.764;9.796;2024-01-06T03:22:11;2.27;;;1.40;;
5900;SDS011;2976;49.764;9.796;2024-01-06T03:24:36;3.43;;;1.57;;
5900;SDS011;2976;49.764;9.796;2024-01-06T03:27:02;4.20;;;1.23;;
5900;SDS011;2976;49.764;9.796;2024-01-06T03:29:27;5.63;;;1.30;;
5900;SDS011;2976;49.764;9.796;2024-01-06T03:31:53;3.40;;;1.60;;
5900;SDS011;2976;49.764;9.796;2024-01-06T03:34:18;1.87;;;1.73;;
5900;SDS011;2976;49.764;9.796;2024-01-06T03:36:44;1.30;;;1.20;;
5900;SDS011;2976;49.764;9.796;2024-01-06T03:39:10;2.33;;;1.67;;
5900;SDS011;2976;49.764;9.796;2024-01-06T03:41:35;5.43;;;1.50;;
5900;SDS011;2976;49.764;9.796;2024-01-06T03:44:01;2.10;;;1.63;;
5900;SDS011;2976;49.764;9.796;2024-01-06T03:46:27;1.77;;;1.47;;
5900;SDS011;2976;49.764;9.796;2024-01-06T03:48:52;4.47;;;1.50;;
5900;SDS011;2976;49.764;9.796;2024-01-06T03:51:18;8.30;;;1.60;;
5900;SDS011;2976;49.764;9.796;2024-01-06T03:53:43;3.60;;;1.10;;
5900;SDS011;2976;49.764;9.796;2024-01-06T03:56:09;3.00;;;1.77;;
5900;SDS011;2976;49.764;9.796;2024-01-06T03:58:34;6.63;;;1.83;;
5900;SDS011;2976;49.764;9.796;2024-01-06T04:01:00;3.90;;;1.63;;
5900;SDS011;2976;49.764;9.796;2024-01-06T04:03:26;3.73;;;1.73;;
5900;SDS011;2976;49.764;9.796;2024-01-06T04:05:52;2.80;;;1.27;;
5900;SDS011;2976;49.764;9.796;2024-01-06T04:08:17;8.33;;;1.53;;
5900;SDS011;2976;49.764;9.796;2024-01-06T04:10:43;1.10;;;1.10;;
5900;SDS011;2976;49.764;9.796;2024-01-06T04:13:10;2.30;;;1.43;;
5900;SDS011;2976;49.764;9.796;2024-01-06T04:15:36;6.60;;;1.60;;
5900;SDS011;2976;49.764;9.796;2024-01-06T04:18:02;11.73;;;1.53;;
5900;SDS011;2976;49.764;9.796;2024-01-06T04:20:29;2.63;;;1.47;;
5900;SDS011;2976;49.764;9.796;2024-01-06T04:22:55;1.30;;;1.13;;
5900;SDS011;2976;49.764;9.796;2024-01-06T04:25:20;3.40;;;1.63;;
5900;SDS011;2976;49.764;9.796;2024-01-06T04:27:46;1.53;;;1.10;;
5900;SDS011;2976;49.764;9.796;2024-01-06T04:30:13;4.90;;;1.13;;
5900;SDS011;2976;49.764;9.796;2024-01-06T04:32:39;4.03;;;1.13;;
5900;SDS011;2976;49.764;9.796;2024-01-06T04:35:05;3.60;;;1.50;;
5900;SDS011;2976;49.764;9.796;2024-01-06T04:37:31;2.60;;;1.40;;
5900;SDS011;2976;49.764;9.796;2024-01-06T04:39:56;4.73;;;1.50;;
5900;SDS011;2976;49.764;9.796;2024-01-06T04:42:22;5.00;;;1.77;;
5900;SDS011;2976;49.764;9.796;2024-01-06T04:44:48;6.43;;;1.67;;
5900;SDS011;2976;49.764;9.796;2024-01-06T04:47:14;3.00;;;1.70;;
5900;SDS011;2976;49.764;9.796;2024-01-06T04:49:40;1.80;;;1.57;;
5900;SDS011;2976;49.764;9.796;2024-01-06T04:52:05;4.17;;;2.03;;
5900;SDS011;2976;49.764;9.796;2024-01-06T04:54:31;1.90;;;1.30;;
5900;SDS011;2976;49.764;9.796;2024-01-06T04:56:58;2.50;;;1.67;;
5900;SDS011;2976;49.764;9.796;2024-01-06T04:59:24;3.73;;;1.57;;
5900;SDS011;2976;49.764;9.796;2024-01-06T05:01:50;1.93;;;1.70;;
5900;SDS011;2976;49.764;9.796;2024-01-06T05:04:17;4.50;;;2.17;;
5900;SDS011;2976;49.764;9.796;2024-01-06T05:06:43;3.73;;;1.60;;
5900;SDS011;2976;49.764;9.796;2024-01-06T05:09:08;4.90;;;1.83;;
5900;SDS011;2976;49.764;9.796;2024-01-06T05:11:34;2.43;;;1.90;;
5900;SDS011;2976;49.764;9.796;2024-01-06T05:14:00;3.47;;;2.10;;
5900;SDS011;2976;49.764;9.796;2024-01-06T05:16:26;6.33;;;2.07;;
5900;SDS011;2976;49.764;9.796;2024-01-06T05:18:52;3.63;;;2.47;;
5900;SDS011;2976;49.764;9.796;2024-01-06T05:21:18;2.23;;;2.00;;
5900;SDS011;2976;49.764;9.796;2024-01-06T05:23:44;4.93;;;2.23;;
5900;SDS011;2976;49.764;9.796;2024-01-06T05:26:09;2.00;;;1.80;;
5900;SDS011;2976;49.764;9.796;2024-01-06T05:28:36;6.93;;;2.50;;
5900;SDS011;2976;49.764;9.796;2024-01-06T05:31:02;8.93;;;2.53;;
5900;SDS011;2976;49.764;9.796;2024-01-06T05:33:27;17.73;;;2.67;;
5900;SDS011;2976;49.764;9.796;2024-01-06T05:35:53;5.17;;;2.13;;
5900;SDS011;2976;49.764;9.796;2024-01-06T05:38:18;5.80;;;2.30;;
5900;SDS011;2976;49.764;9.796;2024-01-06T05:40:44;4.40;;;2.03;;
5900;SDS011;2976;49.764;9.796;2024-01-06T05:43:09;2.73;;;2.50;;
5900;SDS011;2976;49.764;9.796;2024-01-06T05:45:35;3.53;;;1.53;;
5900;SDS011;2976;49.764;9.796;2024-01-06T05:48:02;5.73;;;2.43;;
5900;SDS011;2976;49.764;9.796;2024-01-06T05:50:28;3.50;;;2.10;;
5900;SDS011;2976;49.764;9.796;2024-01-06T05:52:54;2.80;;;2.07;;
5900;SDS011;2976;49.764;9.796;2024-01-06T05:55:20;2.20;;;1.73;;
5900;SDS011;2976;49.764;9.796;2024-01-06T05:57:46;4.10;;;2.07;;
5900;SDS011;2976;49.764;9.796;2024-01-06T06:00:12;2.20;;;1.57;;
5900;SDS011;2976;49.764;9.796;2024-01-06T06:02:38;3.60;;;1.37;;
5900;SDS011;2976;49.764;9.796;2024-01-06T06:05:04;2.40;;;2.00;;
5900;SDS011;2976;49.764;9.796;2024-01-06T06:07:30;7.07;;;1.93;;
5900;SDS011;2976;49.764;9.796;2024-01-06T06:09:56;2.10;;;1.83;;
5900;SDS011;2976;49.764;9.796;2024-01-06T06:12:21;7.03;;;2.03;;
5900;SDS011;2976;49.764;9.796;2024-01-06T06:14:47;2.77;;;1.83;;
5900;SDS011;2976;49.764;9.796;2024-01-06T06:17:12;1.97;;;1.87;;
5900;SDS011;2976;49.764;9.796;2024-01-06T06:19:38;3.37;;;2.27;;
5900;SDS011;2976;49.764;9.796;2024-01-06T06:22:04;2.60;;;2.13;;
5900;SDS011;2976;49.764;9.796;2024-01-06T06:24:29;7.10;;;2.30;;
5900;SDS011;2976;49.764;9.796;2024-01-06T06:26:55;4.13;;;2.30;;
5900;SDS011;2976;49.764;9.796;2024-01-06T06:29:20;4.27;;;2.67;;
5900;SDS011;2976;49.764;9.796;2024-01-06T06:31:46;4.50;;;2.60;;
5900;SDS011;2976;49.764;9.796;2024-01-06T06:34:12;5.67;;;2.10;;
5900;SDS011;2976;49.764;9.796;2024-01-06T06:36:37;3.50;;;2.10;;
5900;SDS011;2976;49.764;9.796;2024-01-06T06:39:03;2.53;;;2.33;;
5900;SDS011;2976;49.764;9.796;2024-01-06T06:41:29;3.40;;;2.47;;
5900;SDS011;2976;49.764;9.796;2024-01-06T06:43:57;3.23;;;2.50;;
5900;SDS011;2976;49.764;9.796;2024-01-06T06:46:23;9.47;;;2.43;;
5900;SDS011;2976;49.764;9.796;2024-01-06T06:48:48;6.33;;;2.80;;
5900;SDS011;2976;49.764;9.796;2024-01-06T06:51:15;4.13;;;2.30;;
5900;SDS011;2976;49.764;9.796;2024-01-06T06:53:41;6.43;;;2.90;;
5900;SDS011;2976;49.764;9.796;2024-01-06T06:56:07;3.50;;;2.53;;
5900;SDS011;2976;49.764;9.796;2024-01-06T06:58:32;4.40;;;3.80;;
5900;SDS011;2976;49.764;9.796;2024-01-06T07:00:58;7.43;;;2.77;;
5900;SDS011;2976;49.764;9.796;2024-01-06T07:03:23;3.87;;;2.13;;
5900;SDS011;2976;49.764;9.796;2024-01-06T07:05:49;8.13;;;3.27;;
5900;SDS011;2976;49.764;9.796;2024-01-06T07:08:15;5.57;;;3.67;;
5900;SDS011;2976;49.764;9.796;2024-01-06T07:10:40;7.30;;;3.90;;
5900;SDS011;2976;49.764;9.796;2024-01-06T07:13:06;4.20;;;2.90;;
5900;SDS011;2976;49.764;9.796;2024-01-06T07:15:32;6.20;;;3.63;;
5900;SDS011;2976;49.764;9.796;2024-01-06T07:17:57;12.53;;;3.87;;
5900;SDS011;2976;49.764;9.796;2024-01-06T07:20:23;4.97;;;3.23;;
5900;SDS011;2976;49.764;9.796;2024-01-06T07:22:48;3.83;;;3.47;;
5900;SDS011;2976;49.764;9.796;2024-01-06T07:25:14;10.00;;;4.03;;
5900;SDS011;2976;49.764;9.796;2024-01-06T07:27:40;3.00;;;2.70;;
5900;SDS011;2976;49.764;9.796;2024-01-06T07:30:05;6.73;;;3.23;;
5900;SDS011;2976;49.764;9.796;2024-01-06T07:32:34;3.50;;;3.20;;
5900;SDS011;2976;49.764;9.796;2024-01-06T07:35:00;5.73;;;3.40;;
5900;SDS011;2976;49.764;9.796;2024-01-06T07:37:25;6.33;;;3.37;;
5900;SDS011;2976;49.764;9.796;2024-01-06T07:39:51;6.70;;;3.77;;
5900;SDS011;2976;49.764;9.796;2024-01-06T07:42:16;9.23;;;3.20;;
5900;SDS011;2976;49.764;9.796;2024-01-06T07:44:42;10.43;;;4.10;;
5900;SDS011;2976;49.764;9.796;2024-01-06T07:47:09;13.40;;;4.33;;
5900;SDS011;2976;49.764;9.796;2024-01-06T07:49:35;9.37;;;3.57;;
5900;SDS011;2976;49.764;9.796;2024-01-06T07:52:00;4.83;;;2.70;;
5900;SDS011;2976;49.764;9.796;2024-01-06T07:54:26;5.37;;;3.23;;
5900;SDS011;2976;49.764;9.796;2024-01-06T07:56:52;9.80;;;3.80;;
5900;SDS011;2976;49.764;9.796;2024-01-06T07:59:17;9.63;;;2.53;;
5900;SDS011;2976;49.764;9.796;2024-01-06T08:01:43;5.73;;;3.30;;
5900;SDS011;2976;49.764;9.796;2024-01-06T08:04:08;6.63;;;3.50;;
5900;SDS011;2976;49.764;9.796;2024-01-06T08:06:34;5.23;;;3.50;;
5900;SDS011;2976;49.764;9.796;2024-01-06T08:09:00;4.63;;;2.53;;
5900;SDS011;2976;49.764;9.796;2024-01-06T08:11:26;5.33;;;2.93;;
5900;SDS011;2976;49.764;9.796;2024-01-06T08:13:52;12.80;;;2.90;;
5900;SDS011;2976;49.764;9.796;2024-01-06T08:16:18;8.13;;;3.20;;
5900;SDS011;2976;49.764;9.796;2024-01-06T08:18:44;3.90;;;3.50;;
5900;SDS011;2976;49.764;9.796;2024-01-06T08:21:10;5.33;;;3.10;;
5900;SDS011;2976;49.764;9.796;2024-01-06T08:23:36;7.40;;;3.13;;
5900;SDS011;2976;49.764;9.796;2024-01-06T08:26:01;6.33;;;3.43;;
5900;SDS011;2976;49.764;9.796;2024-01-06T08:28:27;5.27;;;3.47;;
5900;SDS011;2976;49.764;9.796;2024-01-06T08:30:52;3.87;;;2.83;;
5900;SDS011;2976;49.764;9.796;2024-01-06T08:33:18;8.50;;;3.53;;
5900;SDS011;2976;49.764;9.796;2024-01-06T08:35:44;7.93;;;3.77;;
5900;SDS011;2976;49.764;9.796;2024-01-06T08:38:09;4.37;;;3.07;;
5900;SDS011;2976;49.764;9.796;2024-01-06T08:40:35;4.37;;;3.60;;
5900;SDS011;2976;49.764;9.796;2024-01-06T08:43:01;11.93;;;3.30;;
5900;SDS011;2976;49.764;9.796;2024-01-06T08:45:27;8.00;;;3.27;;
5900;SDS011;2976;49.764;9.796;2024-01-06T08:47:53;13.70;;;3.67;;
5900;SDS011;2976;49.764;9.796;2024-01-06T08:50:19;5.20;;;3.83;;
5900;SDS011;2976;49.764;9.796;2024-01-06T08:52:44;7.17;;;3.67;;
5900;SDS011;2976;49.764;9.796;2024-01-06T08:55:10;3.43;;;2.00;;
5900;SDS011;2976;49.764;9.796;2024-01-06T08:57:35;7.17;;;4.10;;
5900;SDS011;2976;49.764;9.796;2024-01-06T09:00:02;8.63;;;3.30;;
5900;SDS011;2976;49.764;9.796;2024-01-06T09:02:29;9.40;;;3.80;;
5900;SDS011;2976;49.764;9.796;2024-01-06T09:04:54;6.30;;;3.93;;
5900;SDS011;2976;49.764;9.796;2024-01-06T09:07:20;5.60;;;3.70;;
5900;SDS011;2976;49.764;9.796;2024-01-06T09:09:45;4.77;;;3.50;;
5900;SDS011;2976;49.764;9.796;2024-01-06T09:12:11;6.60;;;3.50;;
5900;SDS011;2976;49.764;9.796;2024-01-06T09:14:36;6.33;;;3.30;;
5900;SDS011;2976;49.764;9.796;2024-01-06T09:17:02;5.33;;;3.80;;
5900;SDS011;2976;49.764;9.796;2024-01-06T09:19:29;4.37;;;3.47;;
5900;SDS011;2976;49.764;9.796;2024-01-06T09:21:55;10.60;;;3.60;;
5900;SDS011;2976;49.764;9.796;2024-01-06T09:24:21;4.90;;;3.60;;
5900;SDS011;2976;49.764;9.796;2024-01-06T09:26:46;4.27;;;2.83;;
5900;SDS011;2976;49.764;9.796;2024-01-06T09:29:12;7.27;;;3.93;;
5900;SDS011;2976;49.764;9.796;2024-01-06T09:31:38;4.93;;;3.40;;
5900;SDS011;2976;49.764;9.796;2024-01-06T09:34:03;5.20;;;3.40;;
5900;SDS011;2976;49.764;9.796;2024-01-06T09:36:32;6.67;;;3.33;;
5900;SDS011;2976;49.764;9.796;2024-01-06T09:38:57;7.80;;;4.10;;
5900;SDS011;2976;49.764;9.796;2024-01-06T09:41:23;4.27;;;3.50;;
5900;SDS011;2976;49.764;9.796;2024-01-06T09:43:49;4.73;;;2.67;;
5900;SDS011;2976;49.764;9.796;2024-01-06T09:46:25;7.47;;;3.77;;
5900;SDS011;2976;49.764;9.796;2024-01-06T09:48:52;7.83;;;3.63;;
5900;SDS011;2976;49.764;9.796;2024-01-06T09:51:19;4.20;;;3.10;;
5900;SDS011;2976;49.764;9.796;2024-01-06T09:53:49;6.00;;;2.97;;
5900;SDS011;2976;49.764;9.796;2024-01-06T09:56:31;5.03;;;3.27;;
5900;SDS011;2976;49.764;9.796;2024-01-06T09:58:57;4.63;;;3.27;;
5900;SDS011;2976;49.764;9.796;2024-01-06T10:01:23;8.40;;;2.83;;
5900;SDS011;2976;49.764;9.796;2024-01-06T10:03:49;5.80;;;3.70;;
5900;SDS011;2976;49.764;9.796;2024-01-06T10:06:14;7.90;;;4.10;;
5900;SDS011;2976;49.764;9.796;2024-01-06T10:08:44;3.27;;;2.97;;
5900;SDS011;2976;49.764;9.796;2024-01-06T10:11:12;7.53;;;3.23;;
5900;SDS011;2976;49.764;9.796;2024-01-06T10:13:38;5.40;;;2.90;;
5900;SDS011;2976;49.764;9.796;2024-01-06T10:16:04;5.80;;;3.90;;
5900;SDS011;2976;49.764;9.796;2024-01-06T10:18:30;2.83;;;2.60;;
5900;SDS011;2976;49.764;9.796;2024-01-06T10:20:57;7.37;;;2.77;;
5900;SDS011;2976;49.764;9.796;2024-01-06T10:23:23;7.17;;;3.30;;
5900;SDS011;2976;49.764;9.796;2024-01-06T10:25:51;4.50;;;3.10;;
5900;SDS011;2976;49.764;9.796;2024-01-06T10:28:18;5.20;;;3.37;;
5900;SDS011;2976;49.764;9.796;2024-01-06T10:30:45;6.57;;;3.77;;
5900;SDS011;2976;49.764;9.796;2024-01-06T10:33:11;5.30;;;3.03;;
5900;SDS011;2976;49.764;9.796;2024-01-06T10:35:38;6.43;;;3.00;;
5900;SDS011;2976;49.764;9.796;2024-01-06T10:38:04;12.73;;;4.40;;
5900;SDS011;2976;49.764;9.796;2024-01-06T10:40:32;8.67;;;4.07;;
5900;SDS011;2976;49.764;9.796;2024-01-06T10:42:58;5.17;;;4.10;;
5900;SDS011;2976;49.764;9.796;2024-01-06T10:45:25;6.50;;;3.77;;
5900;SDS011;2976;49.764;9.796;2024-01-06T10:47:53;4.77;;;3.50;;
5900;SDS011;2976;49.764;9.796;2024-01-06T10:50:20;4.63;;;3.30;;
5900;SDS011;2976;49.764;9.796;2024-01-06T10:52:47;8.10;;;3.37;;
5900;SDS011;2976;49.764;9.796;2024-01-06T10:55:14;6.17;;;3.40;;
5900;SDS011;2976;49.764;9.796;2024-01-06T10:57:45;4.60;;;2.87;;
5900;SDS011;2976;49.764;9.796;2024-01-06T11:00:11;15.47;;;4.10;;
5900;SDS011;2976;49.764;9.796;2024-01-06T11:02:39;7.10;;;3.40;;
5900;SDS011;2976;49.764;9.796;2024-01-06T11:05:04;6.53;;;3.40;;
5900;SDS011;2976;49.764;9.796;2024-01-06T11:07:33;14.70;;;4.07;;
5900;SDS011;2976;49.764;9.796;2024-01-06T11:10:15;5.10;;;3.00;;
5900;SDS011;2976;49.764;9.796;2024-01-06T11:12:43;11.23;;;3.33;;
5900;SDS011;2976;49.764;9.796;2024-01-06T11:15:08;3.47;;;2.90;;
5900;SDS011;2976;49.764;9.796;2024-01-06T11:17:55;8.70;;;3.43;;
5900;SDS011;2976;49.764;9.796;2024-01-06T11:20:23;2.97;;;2.77;;
5900;SDS011;2976;49.764;9.796;2024-01-06T11:22:52;3.27;;;2.90;;
5900;SDS011;2976;49.764;9.796;2024-01-06T11:25:19;10.73;;;3.17;;
5900;SDS011;2976;49.764;9.796;2024-01-06T11:27:46;4.07;;;3.50;;
5900;SDS011;2976;49.764;9.796;2024-01-06T11:30:18;3.00;;;2.70;;
5900;SDS011;2976;49.764;9.796;2024-01-06T11:32:45;6.93;;;3.23;;
5900;SDS011;2976;49.764;9.796;2024-01-06T11:35:16;5.90;;;3.57;;
5900;SDS011;2976;49.764;9.796;2024-01-06T11:45:33;7.40;;;2.80;;
5900;SDS011;2976;49.764;9.796;2024-01-06T11:48:00;4.03;;;2.60;;
5900;SDS011;2976;49.764;9.796;2024-01-06T11:50:28;5.80;;;3.00;;
5900;SDS011;2976;49.764;9.796;2024-01-06T11:53:04;4.70;;;2.80;;
5900;SDS011;2976;49.764;9.796;2024-01-06T11:55:30;8.63;;;2.33;;
5900;SDS011;2976;49.764;9.796;2024-01-06T11:57:59;3.10;;;2.80;;
5900;SDS011;2976;49.764;9.796;2024-01-06T12:00:30;5.90;;;3.00;;
5900;SDS011;2976;49.764;9.796;2024-01-06T12:02:56;8.40;;;3.10;;
5900;SDS011;2976;49.764;9.796;2024-01-06T12:05:22;4.70;;;3.90;;
5900;SDS011;2976;49.764;9.796;2024-01-06T12:08:07;5.70;;;2.60;;
5900;SDS011;2976;49.764;9.796;2024-01-06T12:10:33;10.80;;;2.40;;
5900;SDS011;2976;49.764;9.796;2024-01-06T12:12:59;3.83;;;2.70;;
5900;SDS011;2976;49.764;9.796;2024-01-06T12:15:25;3.87;;;2.67;;
5900;SDS011;2976;49.764;9.796;2024-01-06T12:17:52;6.73;;;2.93;;
5900;SDS011;2976;49.764;9.796;2024-01-06T12:20:17;4.30;;;2.93;;
5900;SDS011;2976;49.764;9.796;2024-01-06T12:22:43;3.07;;;2.83;;
5900;SDS011;2976;49.764;9.796;2024-01-06T12:25:09;4.87;;;2.80;;
5900;SDS011;2976;49.764;9.796;2024-01-06T12:27:35;4.70;;;3.20;;
5900;SDS011;2976;49.764;9.796;2024-01-06T12:30:01;5.47;;;2.30;;
5900;SDS011;2976;49.764;9.796;2024-01-06T12:32:28;2.40;;;2.17;;
5900;SDS011;2976;49.764;9.796;2024-01-06T12:34:53;5.33;;;2.97;;
5900;SDS011;2976;49.764;9.796;2024-01-06T12:37:21;6.20;;;3.17;;
5900;SDS011;2976;49.764;9.796;2024-01-06T12:39:48;2.60;;;2.30;;
5900;SDS011;2976;49.764;9.796;2024-01-06T12:42:15;6.83;;;3.00;;
5900;SDS011;2976;49.764;9.796;2024-01-06T12:44:41;3.30;;;2.27;;
5900;SDS011;2976;49.764;9.796;2024-01-06T12:47:07;6.37;;;2.70;;
5900;SDS011;2976;49.764;9.796;2024-01-06T12:49:33;3.23;;;2.20;;
5900;SDS011;2976;49.764;9.796;2024-01-06T12:51:59;2.97;;;2.23;;
5900;SDS011;2976;49.764;9.796;2024-01-06T12:54:25;10.00;;;3.13;;
5900;SDS011;2976;49.764;9.796;2024-01-06T12:56:50;2.73;;;2.53;;
5900;SDS011;2976;49.764;9.796;2024-01-06T12:59:16;4.90;;;2.40;;
5900;SDS011;2976;49.764;9.796;2024-01-06T13:01:42;4.63;;;2.80;;
5900;SDS011;2976;49.764;9.796;2024-01-06T13:04:07;5.93;;;2.77;;
5900;SDS011;2976;49.764;9.796;2024-01-06T13:06:34;5.40;;;2.80;;
5900;SDS011;2976;49.764;9.796;2024-01-06T13:08:59;3.43;;;2.90;;
5900;SDS011;2976;49.764;9.796;2024-01-06T13:11:27;5.93;;;3.27;;
5900;SDS011;2976;49.764;9.796;2024-01-06T13:13:53;6.03;;;3.10;;
5900;SDS011;2976;49.764;9.796;2024-01-06T13:16:18;7.20;;;2.70;;
5900;SDS011;2976;49.764;9.796;2024-01-06T13:18:44;6.83;;;2.50;;
5900;SDS011;2976;49.764;9.796;2024-01-06T13:21:09;3.30;;;2.50;;
5900;SDS011;2976;49.764;9.796;2024-01-06T13:23:35;2.70;;;2.50;;
5900;SDS011;2976;49.764;9.796;2024-01-06T13:26:01;8.83;;;2.70;;
5900;SDS011;2976;49.764;9.796;2024-01-06T13:28:26;5.73;;;3.67;;
5900;SDS011;2976;49.764;9.796;2024-01-06T13:30:52;5.20;;;2.30;;
5900;SDS011;2976;49.764;9.796;2024-01-06T13:33:18;3.13;;;2.30;;
5900;SDS011;2976;49.764;9.796;2024-01-06T13:35:44;8.97;;;2.83;;
5900;SDS011;2976;49.764;9.796;2024-01-06T13:38:10;4.30;;;1.70;;
5900;SDS011;2976;49.764;9.796;2024-01-06T13:40:35;12.50;;;1.80;;
5900;SDS011;2976;49.764;9.796;2024-01-06T13:43:01;4.70;;;2.23;;
5900;SDS011;2976;49.764;9.796;2024-01-06T13:45:29;2.73;;;2.40;;
5900;SDS011;2976;49.764;9.796;2024-01-06T13:47:55;6.73;;;2.30;;
5900;SDS011;2976;49.764;9.796;2024-01-06T13:50:21;5.50;;;2.77;;
5900;SDS011;2976;49.764;9.796;2024-01-06T13:52:46;4.43;;;2.17;;
5900;SDS011;2976;49.764;9.796;2024-01-06T13:55:13;1.97;;;1.87;;
5900;SDS011;2976;49.764;9.796;2024-01-06T13:57:39;5.30;;;2.13;;
5900;SDS011;2976;49.764;9.796;2024-01-06T14:00:07;3.40;;;2.00;;
5900;SDS011;2976;49.764;9.796;2024-01-06T14:02:39;4.83;;;2.43;;
5900;SDS011;2976;49.764;9.796;2024-01-06T14:05:05;6.83;;;2.57;;
5900;SDS011;2976;49.764;9.796;2024-01-06T14:07:33;4.27;;;2.57;;
5900;SDS011;2976;49.764;9.796;2024-01-06T14:10:04;5.23;;;2.27;;
5900;SDS011;2976;49.764;9.796;2024-01-06T14:12:31;3.20;;;2.40;;
5900;SDS011;2976;49.764;9.796;2024-01-06T14:14:57;8.73;;;1.90;;
5900;SDS011;2976;49.764;9.796;2024-01-06T14:17:23;5.60;;;2.80;;
5900;SDS011;2976;49.764;9.796;2024-01-06T14:19:49;4.67;;;2.60;;
5900;SDS011;2976;49.764;9.796;2024-01-06T14:22:14;3.07;;;1.87;;
5900;SDS011;2976;49.764;9.796;2024-01-06T14:24:40;3.73;;;2.00;;
5900;SDS011;2976;49.764;9.796;2024-01-06T14:27:05;2.13;;;1.93;;
5900;SDS011;2976;49.764;9.796;2024-01-06T14:29:31;2.43;;;2.00;;
5900;SDS011;2976;49.764;9.796;2024-01-06T14:31:57;4.13;;;2.43;;
5900;SDS011;2976;49.764;9.796;2024-01-06T14:34:23;5.23;;;2.60;;
5900;SDS011;2976;49.764;9.796;2024-01-06T14:36:49;4.47;;;2.30;;
5900;SDS011;2976;49.764;9.796;2024-01-06T14:39:15;6.07;;;2.20;;
5900;SDS011;2976;49.764;9.796;2024-01-06T14:41:41;4.93;;;2.50;;
5900;SDS011;2976;49.764;9.796;2024-01-06T14:44:07;5.40;;;2.60;;
5900;SDS011;2976;49.764;9.796;2024-01-06T14:46:33;2.50;;;2.30;;
5900;SDS011;2976;49.764;9.796;2024-01-06T14:49:00;2.50;;;1.70;;
5900;SDS011;2976;49.764;9.796;2024-01-06T14:51:29;3.20;;;1.73;;
5900;SDS011;2976;49.764;9.796;2024-01-06T14:53:54;2.97;;;2.40;;
5900;SDS011;2976;49.764;9.796;2024-01-06T14:56:20;8.17;;;3.40;;
5900;SDS011;2976;49.764;9.796;2024-01-06T14:58:46;5.83;;;3.20;;
5900;SDS011;2976;49.764;9.796;2024-01-06T15:01:12;2.07;;;1.97;;
5900;SDS011;2976;49.764;9.796;2024-01-06T15:03:38;3.37;;;2.10;;
5900;SDS011;2976;49.764;9.796;2024-01-06T15:06:03;3.23;;;2.47;;
5900;SDS011;2976;49.764;9.796;2024-01-06T15:08:29;6.17;;;2.63;;
5900;SDS011;2976;49.764;9.796;2024-01-06T15:10:55;3.17;;;1.50;;
5900;SDS011;2976;49.764;9.796;2024-01-06T15:13:21;6.90;;;2.77;;
5900;SDS011;2976;49.764;9.796;2024-01-06T15:15:46;4.77;;;2.60;;